createdAt,value
2023-07-27T00:02:16.460Z,12.29
2023-07-27T00:04:45.145Z,12.22
2023-07-27T00:07:16.665Z,12.16
2023-07-27T00:09:43.330Z,12.12
2023-07-27T00:12:12.259Z,12.11
2023-07-27T00:14:41.485Z,12.12
2023-07-27T00:17:11.663Z,12.03
2023-07-27T00:19:38.442Z,12.02
2023-07-27T00:22:05.372Z,12.07
2023-07-27T00:24:34.572Z,12.05
2023-07-27T00:27:01.204Z,12.03
2023-07-27T00:29:32.756Z,12.01
2023-07-27T00:31:59.344Z,11.99
2023-07-27T00:34:26.295Z,11.97
2023-07-27T00:36:52.883Z,11.91
2023-07-27T00:39:22.220Z,11.89
2023-07-27T00:41:51.316Z,11.78
2023-07-27T00:44:17.936Z,11.88
2023-07-27T00:46:44.809Z,11.74
2023-07-27T00:49:13.818Z,11.77
2023-07-27T00:51:45.820Z,11.78
2023-07-27T00:54:14.235Z,11.82
2023-07-27T00:56:43.058Z,11.81
2023-07-27T00:59:12.093Z,11.81
2023-07-27T01:01:43.452Z,11.87
2023-07-27T01:04:10.495Z,11.91
2023-07-27T01:06:42.031Z,11.98
2023-07-27T01:09:08.848Z,11.93
2023-07-27T01:11:56.809Z,12.04
2023-07-27T01:14:38.788Z,12.05
2023-07-27T01:17:23.097Z,12.06
2023-07-27T01:20:16.125Z,12.09
2023-07-27T01:23:20.925Z,12.09
2023-07-27T01:26:21.180Z,12.05
2023-07-27T01:29:22.455Z,11.95
2023-07-27T01:31:54.259Z,11.90
2023-07-27T01:34:32.500Z,11.96
2023-07-27T01:37:09.430Z,11.96
2023-07-27T01:39:44.475Z,11.88
2023-07-27T01:42:14.642Z,11.86
2023-07-27T01:44:44.336Z,11.87
2023-07-27T01:47:17.262Z,11.95
2023-07-27T01:49:45.946Z,12.01
2023-07-27T01:52:14.102Z,12.05
2023-07-27T01:54:41.066Z,12.04
2023-07-27T01:57:09.961Z,11.97
2023-07-27T01:59:40.826Z,11.98
2023-07-27T02:02:10.153Z,11.97
2023-07-27T02:04:37.259Z,12.04
2023-07-27T02:07:06.237Z,12.02
2023-07-27T02:09:32.890Z,12.12
2023-07-27T02:12:07.064Z,12.21
2023-07-27T02:14:56.815Z,12.19
2023-07-27T02:17:35.120Z,12.21
2023-07-27T02:20:03.947Z,12.22
2023-07-27T02:22:31.429Z,12.28
2023-07-27T02:25:02.531Z,12.20
2023-07-27T02:27:31.958Z,12.20
2023-07-27T02:30:00.785Z,12.23
2023-07-27T02:32:27.470Z,12.27
2023-07-27T02:34:54.426Z,12.26
2023-07-27T02:37:23.252Z,12.29
2023-07-27T02:39:49.855Z,12.15
2023-07-27T02:42:16.428Z,12.19
2023-07-27T02:44:45.239Z,12.10
2023-07-27T02:47:14.660Z,12.21
2023-07-27T02:49:41.601Z,12.26
2023-07-27T02:52:11.016Z,12.31
2023-07-27T02:54:39.949Z,12.37
2023-07-27T02:57:08.999Z,12.40
2023-07-27T02:59:35.944Z,12.40
2023-07-27T03:02:05.348Z,12.40
2023-07-27T03:04:31.984Z,12.38
2023-07-27T03:06:58.961Z,12.41
2023-07-27T03:09:28.557Z,12.43
2023-07-27T03:11:57.806Z,12.38
2023-07-27T03:14:26.657Z,12.41
2023-07-27T03:17:00.399Z,12.46
2023-07-27T03:19:27.789Z,12.45
2023-07-27T03:21:59.243Z,12.35
2023-07-27T03:24:28.123Z,12.37
2023-07-27T03:26:54.891Z,12.41
2023-07-27T03:29:28.561Z,12.43
2023-07-27T03:31:55.639Z,12.42
2023-07-27T03:34:22.318Z,12.42
2023-07-27T03:36:48.889Z,12.43
2023-07-27T03:39:15.820Z,12.41
2023-07-27T03:41:44.568Z,12.41
2023-07-27T03:44:15.251Z,12.40
2023-07-27T03:46:44.626Z,12.42
2023-07-27T03:49:14.217Z,12.40
2023-07-27T03:51:43.740Z,12.31
2023-07-27T03:54:10.426Z,12.37
2023-07-27T03:56:39.176Z,12.41
2023-07-27T03:59:08.169Z,12.43
2023-07-27T04:01:36.998Z,12.42
2023-07-27T04:04:08.496Z,12.47
2023-07-27T04:06:35.456Z,12.47
2023-07-27T04:09:02.382Z,12.50
2023-07-27T04:11:29.013Z,12.51
2023-07-27T04:13:57.856Z,12.55
2023-07-27T04:16:24.536Z,12.58
2023-07-27T04:18:53.521Z,12.54
2023-07-27T04:21:20.194Z,12.58
2023-07-27T04:23:46.896Z,12.59
2023-07-27T04:26:18.450Z,12.62
2023-07-27T04:28:45.567Z,12.63
2023-07-27T04:31:14.696Z,12.67
2023-07-27T04:33:44.296Z,12.66
2023-07-27T04:36:11.099Z,12.67
2023-07-27T04:38:37.709Z,12.72
2023-07-27T04:41:06.597Z,12.70
2023-07-27T04:43:33.184Z,12.68
2023-07-27T04:46:02.080Z,12.69
2023-07-27T04:48:28.751Z,12.73
2023-07-27T04:50:55.851Z,12.85
2023-07-27T04:53:22.471Z,12.85
2023-07-27T04:55:49.101Z,12.87
2023-07-27T04:58:20.543Z,12.97
2023-07-27T05:00:56.295Z,12.95
2023-07-27T05:03:25.369Z,13.05
2023-07-27T05:05:55.464Z,13.11
2023-07-27T05:08:22.093Z,13.10
2023-07-27T05:10:48.681Z,13.05
2023-07-27T05:13:15.302Z,13.19
2023-07-27T05:15:42.612Z,13.18
2023-07-27T05:18:09.316Z,13.22
2023-07-27T05:20:35.924Z,13.40
2023-07-27T05:23:04.860Z,13.43
2023-07-27T05:25:31.540Z,13.52
2023-07-27T05:28:00.249Z,13.58
2023-07-27T05:30:26.950Z,13.64
2023-07-27T05:32:55.913Z,13.44
2023-07-27T05:35:22.532Z,13.55
2023-07-27T05:37:51.615Z,13.59
2023-07-27T05:40:20.437Z,13.53
2023-07-27T05:42:47.012Z,13.54
2023-07-27T05:45:18.237Z,13.38
2023-07-27T05:47:44.886Z,13.43
2023-07-27T05:50:12.845Z,13.53
2023-07-27T05:52:39.474Z,13.56
2023-07-27T05:55:08.825Z,13.67
2023-07-27T05:57:35.406Z,13.68
2023-07-27T06:00:07.525Z,13.55
2023-07-27T06:02:37.190Z,13.60
2023-07-27T06:05:04.277Z,13.67
2023-07-27T06:07:31.107Z,13.84
2023-07-27T06:09:57.711Z,14.00
2023-07-27T06:12:26.814Z,14.08
2023-07-27T06:14:55.754Z,13.95
2023-07-27T06:17:25.529Z,14.25
2023-07-27T06:19:54.763Z,14.33
2023-07-27T06:22:21.857Z,14.41
2023-07-27T06:24:53.311Z,14.67
2023-07-27T06:27:20.119Z,14.79
2023-07-27T06:29:47.150Z,14.71
2023-07-27T06:32:16.301Z,14.60
2023-07-27T06:34:45.342Z,14.60
2023-07-27T06:37:12.075Z,14.49
2023-07-27T06:39:39.419Z,14.64
2023-07-27T06:42:08.746Z,14.65
2023-07-27T06:44:37.833Z,14.76
2023-07-27T06:47:07.459Z,14.53
2023-07-27T06:49:36.581Z,14.40
2023-07-27T06:52:10.393Z,14.16
2023-07-27T06:54:37.948Z,14.52
2023-07-27T06:57:11.600Z,14.58
2023-07-27T06:59:38.418Z,14.83
2023-07-27T07:02:07.866Z,14.99
2023-07-27T07:04:40.473Z,14.90
2023-07-27T07:07:13.017Z,14.88
2023-07-27T07:09:42.004Z,14.87
2023-07-27T07:12:09.327Z,15.05
2023-07-27T07:14:35.959Z,15.34
2023-07-27T07:17:03.531Z,15.17
2023-07-27T07:19:32.341Z,15.47
2023-07-27T07:22:01.759Z,15.21
2023-07-27T07:24:28.490Z,14.84
2023-07-27T07:26:56.953Z,15.39
2023-07-27T07:29:26.303Z,15.49
2023-07-27T07:31:55.917Z,16.26
2023-07-27T07:34:24.810Z,16.50
2023-07-27T07:36:51.467Z,16.12
2023-07-27T07:39:18.309Z,17.11
2023-07-27T07:41:45.356Z,17.41
2023-07-27T07:44:11.983Z,17.19
2023-07-27T07:46:43.546Z,17.37
2023-07-27T07:49:12.928Z,17.42
2023-07-27T07:51:39.485Z,17.47
2023-07-27T07:54:10.981Z,17.43
2023-07-27T07:56:40.860Z,17.65
2023-07-27T07:59:07.908Z,17.86
2023-07-27T08:01:34.996Z,18.09
2023-07-27T08:04:01.795Z,17.96
2023-07-27T08:06:28.372Z,18.13
2023-07-27T08:08:57.033Z,17.82
2023-07-27T08:11:23.657Z,18.09
2023-07-27T08:13:56.423Z,17.90
2023-07-27T08:16:26.168Z,17.95
2023-07-27T08:18:52.789Z,18.30
2023-07-27T08:21:19.414Z,18.58
2023-07-27T08:23:48.495Z,18.77
2023-07-27T08:26:17.588Z,19.03
2023-07-27T08:28:47.077Z,19.26
2023-07-27T08:31:16.280Z,19.41
2023-07-27T08:33:44.933Z,18.77
2023-07-27T08:36:14.490Z,19.18
2023-07-27T08:38:41.232Z,19.48
2023-07-27T08:41:07.790Z,19.91
2023-07-27T08:43:34.529Z,20.05
2023-07-27T08:46:01.972Z,19.94
2023-07-27T08:48:31.840Z,19.99
2023-07-27T08:50:59.609Z,19.90
2023-07-27T08:53:31.283Z,19.76
2023-07-27T08:55:59.637Z,20.03
2023-07-27T08:58:26.925Z,20.14
2023-07-27T09:00:53.617Z,20.18
2023-07-27T09:03:22.705Z,20.55
2023-07-27T09:06:04.970Z,20.80
2023-07-27T09:08:31.729Z,20.39
2023-07-27T09:11:09.734Z,20.50
2023-07-27T09:13:40.331Z,20.60
2023-07-27T09:16:07.992Z,20.78
2023-07-27T09:18:39.421Z,20.87
2023-07-27T09:21:12.083Z,20.77
2023-07-27T09:23:39.693Z,20.52
2023-07-27T09:26:07.310Z,20.72
2023-07-27T09:28:39.409Z,20.64
2023-07-27T09:31:06.067Z,20.64
2023-07-27T09:33:35.008Z,20.73
2023-07-27T09:36:03.640Z,20.48
2023-07-27T09:38:30.482Z,20.51
2023-07-27T09:40:57.178Z,20.41
2023-07-27T09:43:28.973Z,20.27
2023-07-27T09:46:00.777Z,20.14
2023-07-27T09:48:31.166Z,20.25
2023-07-27T09:51:08.035Z,20.19
2023-07-27T09:53:41.663Z,20.36
2023-07-27T09:56:09.001Z,20.27
2023-07-27T09:58:37.787Z,20.55
2023-07-27T10:01:07.027Z,20.67
2023-07-27T10:03:33.948Z,20.66
2023-07-27T10:06:04.137Z,20.89
2023-07-27T10:08:34.651Z,20.91
2023-07-27T10:11:05.198Z,20.94
2023-07-27T10:13:38.361Z,20.72
2023-07-27T10:16:08.673Z,20.83
2023-07-27T10:18:41.732Z,20.55
2023-07-27T10:21:24.685Z,20.63
2023-07-27T10:24:01.994Z,20.46
2023-07-27T10:26:56.080Z,20.56
2023-07-27T10:29:23.959Z,20.56
2023-07-27T10:32:06.901Z,20.57
2023-07-27T10:34:41.866Z,20.74
2023-07-27T10:37:11.324Z,20.79
2023-07-27T10:39:53.402Z,20.67
2023-07-27T10:42:31.182Z,20.30
2023-07-27T10:45:00.399Z,20.38
2023-07-27T10:47:38.659Z,20.43
2023-07-27T10:50:10.155Z,20.64
2023-07-27T10:52:42.053Z,21.05
2023-07-27T10:55:11.180Z,21.03
2023-07-27T10:57:38.935Z,21.39
2023-07-27T11:00:06.582Z,21.53
2023-07-27T11:02:34.622Z,21.77
2023-07-27T11:05:10.887Z,22.12
2023-07-27T11:07:39.848Z,22.27
2023-07-27T11:10:16.988Z,22.29
2023-07-27T11:12:53.589Z,22.14
2023-07-27T11:15:33.076Z,21.72
2023-07-27T11:18:03.086Z,22.03
2023-07-27T11:20:33.287Z,21.95
2023-07-27T11:23:00.400Z,22.11
2023-07-27T11:25:33.928Z,22.24
2023-07-27T11:28:04.523Z,22.20
2023-07-27T11:30:36.889Z,22.58
2023-07-27T11:33:12.211Z,22.84
2023-07-27T11:35:48.823Z,22.80
2023-07-27T11:38:15.438Z,23.02
2023-07-27T11:40:50.633Z,23.05
2023-07-27T11:43:17.363Z,23.10
2023-07-27T11:45:46.538Z,23.10
2023-07-27T11:48:13.572Z,23.21
2023-07-27T11:50:40.308Z,23.19
2023-07-27T11:53:19.839Z,23.09
2023-07-27T11:55:58.662Z,23.03
2023-07-27T11:58:30.727Z,23.00
2023-07-27T12:00:57.465Z,22.66
2023-07-27T12:03:26.453Z,22.90
2023-07-27T12:05:55.127Z,23.06
2023-07-27T12:13:58.952Z,23.17
2023-07-27T12:16:18.962Z,23.22
2023-07-27T12:27:16.726Z,22.82
2023-07-27T12:34:25.634Z,22.68
2023-07-27T12:39:24.286Z,23.13
2023-07-27T12:44:25.555Z,23.47
2023-07-27T12:46:56.671Z,23.43
2023-07-27T12:49:28.064Z,23.41
2023-07-27T12:51:57.701Z,23.35
2023-07-27T12:54:26.548Z,23.04
2023-07-27T12:56:53.175Z,23.14
2023-07-27T12:59:19.826Z,23.23
2023-07-27T13:01:46.378Z,23.30
2023-07-27T13:04:13.025Z,23.24
2023-07-27T13:06:41.871Z,23.56
2023-07-27T13:09:09.035Z,23.60
2023-07-27T13:11:38.486Z,23.63
2023-07-27T13:14:05.110Z,23.86
2023-07-27T13:16:35.210Z,24.12
2023-07-27T13:19:02.313Z,23.67
2023-07-27T13:21:29.002Z,23.89
2023-07-27T13:23:55.834Z,24.11
2023-07-27T13:26:29.752Z,24.43
2023-07-27T13:28:58.803Z,24.39
2023-07-27T13:31:28.427Z,24.46
2023-07-27T13:33:58.288Z,24.41
2023-07-27T13:36:31.761Z,24.50
2023-07-27T13:39:04.248Z,24.43
2023-07-27T13:41:30.867Z,24.39
2023-07-27T13:43:57.678Z,24.64
2023-07-27T13:46:29.128Z,24.90
2023-07-27T13:48:55.755Z,25.05
2023-07-27T13:51:27.174Z,24.90
2023-07-27T13:53:56.443Z,24.93
2023-07-27T13:56:25.271Z,24.74
2023-07-27T13:58:51.829Z,24.63
2023-07-27T14:01:20.926Z,24.67
2023-07-27T14:03:50.626Z,24.84
2023-07-27T14:06:17.312Z,25.26
2023-07-27T14:08:43.908Z,25.23
2023-07-27T14:11:15.209Z,25.54
2023-07-27T14:13:44.815Z,25.65
2023-07-27T14:16:13.726Z,25.73
2023-07-27T14:18:44.777Z,25.61
2023-07-27T14:21:13.504Z,25.28
2023-07-27T14:23:42.421Z,25.51
2023-07-27T14:26:12.864Z,25.62
2023-07-27T14:28:41.746Z,25.33
2023-07-27T14:31:13.501Z,25.10
2023-07-27T14:33:40.956Z,25.70
2023-07-27T14:36:07.700Z,25.56
2023-07-27T14:38:34.401Z,25.54
2023-07-27T14:41:03.409Z,25.36
2023-07-27T14:43:32.379Z,25.48
2023-07-27T14:46:01.296Z,25.41
2023-07-27T14:48:27.936Z,25.65
2023-07-27T14:50:54.558Z,25.17
2023-07-27T14:53:25.339Z,25.42
2023-07-27T14:55:52.108Z,25.63
2023-07-27T14:58:20.883Z,25.46
2023-07-27T15:03:22.871Z,25.00
2023-07-27T15:05:53.593Z,24.96
2023-07-27T15:08:22.732Z,25.12
2023-07-27T15:13:36.010Z,25.83
2023-07-27T15:16:02.639Z,26.17
2023-07-27T15:18:29.369Z,26.47
2023-07-27T15:20:59.500Z,26.81
2023-07-27T15:23:28.592Z,26.33
2023-07-27T15:25:56.498Z,26.26
2023-07-27T15:28:25.405Z,26.63
2023-07-27T15:30:52.482Z,26.48
2023-07-27T15:33:19.944Z,26.47
2023-07-27T15:35:48.985Z,26.73
2023-07-27T15:38:18.276Z,26.44
2023-07-27T15:40:50.675Z,25.51
2023-07-27T15:43:20.290Z,25.66
2023-07-27T15:45:50.148Z,25.87
2023-07-27T15:48:20.439Z,26.13
2023-07-27T15:50:49.469Z,26.01
2023-07-27T15:53:16.444Z,25.74
2023-07-27T15:55:43.500Z,25.46
2023-07-27T15:58:13.076Z,25.24
2023-07-27T16:00:40.490Z,25.38
2023-07-27T16:03:09.519Z,25.05
2023-07-27T16:05:37.332Z,25.58
2023-07-27T16:08:07.156Z,25.44
2023-07-27T16:10:35.997Z,25.08
2023-07-27T16:13:02.569Z,25.22
2023-07-27T16:15:29.804Z,25.57
2023-07-27T16:17:58.953Z,25.64
2023-07-27T16:20:25.635Z,25.54
2023-07-27T16:22:55.062Z,25.12
2023-07-27T16:25:22.907Z,25.02
2023-07-27T16:27:49.595Z,24.88
2023-07-27T16:30:16.350Z,24.99
2023-07-27T16:32:47.802Z,25.11
2023-07-27T16:35:15.857Z,25.04
2023-07-27T16:37:44.926Z,25.04
2023-07-27T16:40:12.244Z,24.87
2023-07-27T16:42:39.056Z,25.13
2023-07-27T16:45:06.275Z,25.04
2023-07-27T16:47:35.329Z,24.83
2023-07-27T16:50:01.900Z,25.05
2023-07-27T16:52:30.529Z,25.11
2023-07-27T16:54:57.114Z,25.01
2023-07-27T16:57:23.712Z,25.18
2023-07-27T16:59:52.686Z,25.05
2023-07-27T17:02:24.018Z,24.74
2023-07-27T17:04:53.242Z,24.48
2023-07-27T17:07:22.346Z,24.62
2023-07-27T17:09:51.411Z,24.62
2023-07-27T17:12:18.146Z,24.40
2023-07-27T17:14:44.806Z,24.29
2023-07-27T17:17:11.431Z,24.26
2023-07-27T17:19:40.487Z,24.32
2023-07-27T17:22:07.342Z,24.05
2023-07-27T17:24:34.081Z,24.32
2023-07-27T17:27:00.735Z,24.33
2023-07-27T17:29:27.816Z,24.03
2023-07-27T17:32:01.814Z,23.81
2023-07-27T17:34:32.584Z,23.85
2023-07-27T17:36:59.633Z,23.65
2023-07-27T17:39:26.393Z,23.59
2023-07-27T17:41:52.968Z,23.51
2023-07-27T17:44:19.549Z,23.39
2023-07-27T17:46:46.211Z,23.38
2023-07-27T17:49:14.249Z,23.37
2023-07-27T17:51:43.053Z,23.22
2023-07-27T17:54:13.920Z,23.23
2023-07-27T17:56:41.726Z,23.08
2023-07-27T17:59:08.370Z,23.03
2023-07-27T18:01:39.269Z,23.00
2023-07-27T18:04:05.894Z,22.93
2023-07-27T18:06:35.788Z,22.88
2023-07-27T18:09:03.507Z,22.77
2023-07-27T18:11:32.711Z,22.71
2023-07-27T18:13:59.508Z,22.39
2023-07-27T18:16:26.104Z,22.12
2023-07-27T18:18:52.713Z,22.40
2023-07-27T18:21:19.579Z,22.25
2023-07-27T18:23:47.954Z,22.11
2023-07-27T18:26:25.536Z,21.91
2023-07-27T18:28:52.117Z,21.96
2023-07-27T18:31:22.194Z,22.00
2023-07-27T18:33:51.611Z,21.72
2023-07-27T18:36:19.285Z,21.62
2023-07-27T18:38:48.844Z,21.68
2023-07-27T18:41:17.448Z,21.43
2023-07-27T18:43:44.501Z,21.39
2023-07-27T18:46:16.101Z,21.33
2023-07-27T18:48:46.091Z,21.26
2023-07-27T18:51:12.634Z,21.18
2023-07-27T18:53:44.021Z,21.13
2023-07-27T18:56:15.573Z,21.06
2023-07-27T18:58:46.910Z,20.96
2023-07-27T19:01:16.012Z,20.92
2023-07-27T19:03:43.119Z,20.69
2023-07-27T19:06:12.289Z,20.62
2023-07-27T19:08:41.242Z,20.50
2023-07-27T19:11:12.536Z,20.35
2023-07-27T19:13:39.303Z,20.33
2023-07-27T19:16:06.527Z,20.39
2023-07-27T19:18:38.642Z,20.40
2023-07-27T19:21:07.492Z,20.35
2023-07-27T19:23:37.312Z,20.33
2023-07-27T19:26:03.967Z,20.32
2023-07-27T19:28:30.913Z,20.22
2023-07-27T19:30:57.658Z,20.21
2023-07-27T19:33:24.314Z,20.19
2023-07-27T19:35:50.948Z,20.13
2023-07-27T19:38:17.903Z,20.19
2023-07-27T19:40:47.112Z,20.10
2023-07-27T19:43:15.896Z,20.12
2023-07-27T19:45:42.820Z,20.03
2023-07-27T19:48:15.604Z,19.99
2023-07-27T19:50:42.314Z,19.92
2023-07-27T19:53:11.098Z,19.90
2023-07-27T19:55:39.899Z,19.84
2023-07-27T19:58:08.768Z,19.86
2023-07-27T20:00:37.879Z,19.82
2023-07-27T20:03:04.612Z,19.59
2023-07-27T20:05:36.679Z,19.47
2023-07-27T20:08:05.590Z,19.42
2023-07-27T20:10:32.232Z,19.45
2023-07-27T20:12:58.952Z,19.36
2023-07-27T20:15:27.766Z,19.33
2023-07-27T20:17:54.409Z,19.25
2023-07-27T20:20:23.511Z,19.13
2023-07-27T20:22:52.414Z,19.16
2023-07-27T20:25:19.067Z,19.00
2023-07-27T20:27:50.213Z,18.94
2023-07-27T20:30:19.178Z,18.83
2023-07-27T20:32:49.261Z,18.73
2023-07-27T20:35:15.990Z,18.67
2023-07-27T20:37:42.989Z,18.73
2023-07-27T20:40:12.476Z,18.72
2023-07-27T20:42:39.131Z,18.72
2023-07-27T20:45:07.820Z,18.75
2023-07-27T20:47:37.158Z,18.75
2023-07-27T20:50:04.457Z,18.72
2023-07-27T20:52:31.115Z,18.48
2023-07-27T20:55:02.377Z,18.47
2023-07-27T20:57:30.425Z,18.16
2023-07-27T21:00:00.079Z,17.89
2023-07-27T21:02:26.639Z,17.95
2023-07-27T21:04:53.345Z,18.09
2023-07-27T21:07:26.897Z,18.11
2023-07-27T21:09:57.158Z,18.15
2023-07-27T21:12:28.969Z,18.20
2023-07-27T21:14:58.497Z,18.17
2023-07-27T21:17:29.585Z,18.23
2023-07-27T21:19:58.695Z,18.24
2023-07-27T21:22:25.417Z,18.14
2023-07-27T21:24:52.000Z,18.09
2023-07-27T21:27:20.957Z,18.04
2023-07-27T21:29:50.044Z,18.07
2023-07-27T21:32:16.742Z,17.95
2023-07-27T21:34:45.688Z,17.91
2023-07-27T21:37:14.562Z,17.82
2023-07-27T21:39:41.184Z,17.83
2023-07-27T21:42:07.910Z,17.80
2023-07-27T21:44:39.322Z,17.78
2023-07-27T21:47:06.308Z,17.74
2023-07-27T21:49:32.879Z,17.67
2023-07-27T21:52:01.758Z,17.62
2023-07-27T21:54:34.454Z,17.74
2023-07-27T21:57:06.071Z,17.70
2023-07-27T21:59:35.458Z,17.57
2023-07-27T22:02:02.153Z,17.32
2023-07-27T22:04:30.930Z,17.33
2023-07-27T22:06:58.054Z,17.40
2023-07-27T22:09:27.157Z,17.38
2023-07-27T22:11:53.940Z,17.40
2023-07-27T22:14:20.557Z,17.42
2023-07-27T22:16:47.174Z,17.43
2023-07-27T22:19:16.283Z,17.49
2023-07-27T22:21:47.600Z,17.48
2023-07-27T22:24:14.317Z,17.41
2023-07-27T22:26:43.110Z,17.27
2023-07-27T22:29:09.861Z,17.11
2023-07-27T22:31:36.550Z,17.21
2023-07-27T22:34:03.689Z,17.14
2023-07-27T22:36:30.326Z,17.04
2023-07-27T22:38:56.988Z,17.13
2023-07-27T22:41:26.505Z,17.12
2023-07-27T22:43:53.121Z,17.16
2023-07-27T22:46:19.809Z,17.14
2023-07-27T22:48:50.879Z,17.08
2023-07-27T22:51:17.592Z,17.01
2023-07-27T22:53:44.248Z,17.03
2023-07-27T22:56:10.932Z,17.02
2023-07-27T22:58:37.550Z,17.04
2023-07-27T23:01:11.201Z,16.99
2023-07-27T23:03:38.360Z,16.95
2023-07-27T23:06:05.660Z,16.75
2023-07-27T23:08:35.610Z,16.79
2023-07-27T23:11:05.176Z,16.93
2023-07-27T23:13:32.500Z,16.99
2023-07-27T23:16:02.110Z,16.93
2023-07-27T23:18:28.816Z,16.89
2023-07-27T23:20:57.751Z,16.74
2023-07-27T23:23:24.380Z,16.70
2023-07-27T23:25:51.083Z,16.79
2023-07-27T23:28:17.695Z,16.76
2023-07-27T23:30:44.352Z,16.64
2023-07-27T23:33:10.969Z,16.63
2023-07-27T23:35:37.635Z,16.64
2023-07-27T23:38:04.465Z,16.66
2023-07-27T23:40:31.075Z,16.70
2023-07-27T23:43:00.123Z,16.66
2023-07-27T23:45:29.044Z,16.65
2023-07-27T23:47:55.662Z,16.63
2023-07-27T23:50:24.639Z,16.66
2023-07-27T23:52:51.333Z,16.59
2023-07-27T23:55:18.037Z,16.66
2023-07-27T23:57:45.047Z,16.66
